Time;durP1;ratioP1;P1;durP2;ratioP2;P2;SDS_P1;SDS_P2;PMS_P1;PMS_P2;Temp;Humidity;BMP_temperature;BMP_pressure;BME280_temperature;BME280_humidity;BME280_pressure;Samples;Min_cycle;Max_cycle;Signal;HPM_P1;HPM_P2
2023/08/05 07:58:49;;;;;;;8.93;6.05;;;;;;;26.80;100.00;98991.88;6293913;28;20383;-72
2023/08/05 08:01:55;;;;;;;7.68;6.22;;;;;;;26.91;100.00;98991.09;6293974;28;20059;-72
2023/08/05 08:04:57;;;;;;;7.57;5.93;;;;;;;27.12;100.00;98995.16;6293600;28;20511;-72
2023/08/05 08:08:00;;;;;;;8.50;6.28;;;;;;;27.58;100.00;99001.72;6293724;28;20135;-75
2023/08/05 08:11:00;;;;;;;7.85;5.47;;;;;;;27.71;100.00;99001.50;6292353;28;20393;-73
2023/08/05 08:14:03;;;;;;;8.50;6.22;;;;;;;28.00;100.00;99003.53;6292710;28;20128;-72
2023/08/05 08:17:04;;;;;;;9.82;6.53;;;;;;;28.19;100.00;99007.75;6292313;28;20055;-73
2023/08/05 08:20:05;;;;;;;11.45;6.22;;;;;;;28.54;100.00;99001.56;6293462;28;20393;-72
2023/08/05 08:23:06;;;;;;;12.50;6.03;;;;;;;28.62;100.00;98997.66;6293259;28;20052;-72
2023/08/05 08:26:06;;;;;;;8.77;5.90;;;;;;;28.70;98.67;98997.28;6293634;28;20051;-73
2023/08/05 08:29:09;;;;;;;7.32;5.65;;;;;;;28.99;99.04;99002.69;6293498;28;20127;-72
2023/08/05 08:32:10;;;;;;;8.07;5.78;;;;;;;29.27;98.18;98991.97;6292973;28;20496;-72
2023/08/05 08:35:11;;;;;;;8.30;5.50;;;;;;;29.39;96.70;98999.16;6291779;28;20056;-72
2023/08/05 08:38:12;;;;;;;6.88;5.20;;;;;;;29.42;95.17;98995.97;6291542;28;20049;-72
2023/08/05 08:41:13;;;;;;;6.63;5.43;;;;;;;29.54;93.79;98983.28;6291997;28;20135;-72
2023/08/05 08:44:19;;;;;;;8.70;5.30;;;;;;;29.61;95.55;98989.31;6291456;28;20062;-73
2023/08/05 08:47:22;;;;;;;8.88;5.65;;;;;;;29.96;91.90;98985.59;6292590;28;20155;-73
2023/08/05 08:50:24;;;;;;;7.90;5.65;;;;;;;29.83;87.40;98989.41;6291624;28;20132;-72
2023/08/05 08:53:26;;;;;;;9.05;5.53;;;;;;;30.09;94.11;98984.44;6291419;28;20611;-73
2023/08/05 08:56:26;;;;;;;9.25;5.38;;;;;;;30.06;89.17;98987.59;6291342;28;20146;-73
2023/08/05 08:59:30;;;;;;;7.28;5.40;;;;;;;30.18;89.75;98984.81;6276616;28;20145;-73
2023/08/05 09:02:31;;;;;;;10.38;5.55;;;;;;;30.32;86.05;98988.81;6276265;28;20064;-72
2023/08/05 09:05:45;;;;;;;6.25;4.97;;;;;;;30.65;90.58;98987.06;6274521;28;20045;-73
2023/08/05 09:08:47;;;;;;;8.05;5.40;;;;;;;30.79;86.41;98991.00;6274652;28;20523;-70
2023/08/05 09:11:48;;;;;;;8.35;5.28;;;;;;;30.90;85.59;98991.97;6274157;28;20049;-70
2023/08/05 09:14:55;;;;;;;7.55;5.40;;;;;;;30.98;83.74;98988.81;6274081;28;20557;-69
2023/08/05 09:17:57;;;;;;;8.35;5.35;;;;;;;31.07;83.44;98991.84;6273866;28;20415;-69
2023/08/05 09:21:00;;;;;;;7.20;5.10;;;;;;;30.93;82.81;98986.88;6275107;28;20076;-71
2023/08/05 09:24:01;;;;;;;7.35;5.13;;;;;;;31.20;82.03;98994.16;6274900;28;20127;-70
2023/08/05 09:27:02;;;;;;;6.20;4.88;;;;;;;31.16;81.05;99003.00;6275185;28;20049;-70
2023/08/05 09:30:19;;;;;;;6.63;4.90;;;;;;;30.71;80.26;98991.44;6274876;28;20083;-70
2023/08/05 09:33:27;;;;;;;8.10;5.25;;;;;;;30.94;82.21;99003.84;6273832;28;20060;-70
2023/08/05 09:36:32;;;;;;;7.20;5.40;;;;;;;31.06;83.98;98993.75;6274623;28;20053;-70
2023/08/05 09:39:50;;;;;;;6.57;5.00;;;;;;;31.29;83.83;98997.19;6274962;28;20089;-69
2023/08/05 09:43:00;;;;;;;7.43;5.13;;;;;;;31.37;78.49;98996.75;6274672;28;20064;-70
2023/08/05 09:46:05;;;;;;;7.75;5.05;;;;;;;31.60;76.94;98990.22;6274519;28;20045;-70
2023/08/05 09:49:08;;;;;;;6.05;5.15;;;;;;;31.50;81.19;98990.97;6274513;28;20480;-70
2023/08/05 09:52:10;;;;;;;7.43;4.95;;;;;;;31.32;78.81;98991.31;6274381;28;20060;-69
2023/08/05 09:55:12;;;;;;;7.53;5.15;;;;;;;31.64;74.31;98994.03;6273089;28;20049;-69
2023/08/05 09:58:13;;;;;;;;;;;;;;;31.13;68.77;98985.47;6273224;28;20061;-69
2023/08/05 10:01:14;;;;;;;8.75;4.80;;;;;;;31.53;70.94;98984.25;6273048;28;20394;-69
2023/08/05 10:04:16;;;;;;;;;;;;;;;31.24;67.46;98984.50;6273779;28;20230;-73
2023/08/05 10:07:18;;;;;;;5.93;4.47;;;;;;;31.72;67.20;98980.06;6273585;28;19975;-73
2023/08/05 10:10:22;;;;;;;7.75;5.22;;;;;;;31.39;71.03;98981.13;6272256;28;20053;-73
2023/08/05 10:13:23;;;;;;;6.20;4.78;;;;;;;31.45;74.41;98973.94;6273161;28;20045;-73
2023/08/05 10:16:24;;;;;;;6.55;5.05;;;;;;;31.13;76.18;98977.38;6274420;28;20045;-73
2023/08/05 10:19:30;;;;;;;6.65;5.32;;;;;;;31.45;73.07;98977.44;6274468;28;20068;-73
2023/08/05 10:22:31;;;;;;;6.00;4.72;;;;;;;31.56;74.62;98967.53;6274133;28;20055;-73
2023/08/05 10:25:40;;;;;;;;;;;;;;;31.16;79.25;98968.00;6273400;28;20132;-73
2023/08/05 10:28:42;;;;;;;5.63;5.03;;;;;;;31.18;83.75;98974.75;6273911;28;19921;-73
2023/08/05 10:31:47;;;;;;;7.43;5.30;;;;;;;31.00;82.00;98965.13;6272680;28;20045;-73
2023/08/05 10:35:29;;;;;;;8.35;5.43;;;;;;;30.77;79.14;98971.59;6272575;28;20049;-73
2023/08/05 10:38:43;;;;;;;8.52;5.40;;;;;;;31.20;78.10;98971.81;6273774;28;20053;-73
2023/08/05 10:41:43;;;;;;;7.05;5.47;;;;;;;31.41;79.75;98975.50;6273930;28;20511;-73
2023/08/05 10:44:44;;;;;;;;;;;;;;;31.41;75.19;98970.91;6274332;28;20049;-73
2023/08/05 10:47:47;;;;;;;7.72;5.43;;;;;;;31.33;76.00;98965.97;6272717;28;19928;-73
2023/08/05 10:50:49;;;;;;;7.25;5.60;;;;;;;31.62;75.94;98955.72;6272171;28;20053;-73
2023/08/05 10:53:55;;;;;;;9.15;5.68;;;;;;;32.67;72.17;98959.59;6273668;28;20052;-73
2023/08/05 10:56:56;;;;;;;7.43;5.70;;;;;;;32.61;69.57;98953.34;6272002;28;20057;-73
2023/08/05 10:59:59;;;;;;;;;;;;;;;33.06;63.06;98942.94;6272856;28;20049;-73
2023/08/05 11:03:23;;;;;;;6.07;4.82;;;;;;;33.47;69.98;98946.47;6272324;28;20020;-73
2023/08/05 11:06:25;;;;;;;6.40;5.45;;;;;;;33.71;69.48;98944.06;6272203;28;20045;-73
2023/08/05 11:09:33;;;;;;;8.68;4.70;;;;;;;33.43;65.66;98934.59;6271950;28;20195;-73
2023/08/05 11:12:34;;;;;;;6.68;4.90;;;;;;;33.49;62.74;98933.50;6272003;28;20048;-73
2023/08/05 11:15:40;;;;;;;6.13;4.82;;;;;;;33.65;60.60;98928.13;6273100;28;20165;-73
2023/08/05 11:19:06;;;;;;;10.35;6.60;;;;;;;33.69;63.11;98921.91;6271902;28;20057;-73
2023/08/05 11:22:07;;;;;;;8.82;7.00;;;;;;;32.82;64.99;98915.59;6271299;28;20050;-70
2023/08/05 11:25:08;;;;;;;8.57;5.20;;;;;;;32.95;69.11;98919.66;6272104;28;20096;-69
2023/08/05 11:28:09;;;;;;;8.38;4.60;;;;;;;32.49;67.59;98910.38;6271223;28;20045;-69
2023/08/05 11:31:20;;;;;;;7.70;5.43;;;;;;;32.34;66.05;98910.31;6272186;28;20103;-69
2023/08/05 11:34:25;;;;;;;9.80;6.43;;;;;;;32.26;70.53;98905.41;6272468;28;20053;-70
2023/08/05 11:37:25;;;;;;;6.43;5.15;;;;;;;32.50;67.48;98903.09;6272019;28;20052;-70
2023/08/05 11:40:29;;;;;;;8.07;5.78;;;;;;;32.44;66.63;98896.84;6272396;28;20098;-70
2023/08/05 11:43:31;;;;;;;6.47;4.90;;;;;;;32.35;64.71;98884.97;6272463;28;20111;-70
2023/08/05 11:46:32;;;;;;;9.35;6.07;;;;;;;32.61;63.79;98888.56;6270979;28;20056;-70
2023/08/05 11:49:33;;;;;;;8.15;5.57;;;;;;;33.00;62.55;98879.97;6271921;28;20053;-70
2023/08/05 11:52:34;;;;;;;7.32;5.22;;;;;;;33.76;63.09;98875.63;6270867;28;20049;-70
2023/08/05 11:55:42;;;;;;;7.32;5.43;;;;;;;33.45;62.19;98878.34;6270549;28;20055;-70
2023/08/05 11:58:43;;;;;;;6.68;4.53;;;;;;;34.28;63.55;98870.84;6270633;28;20053;-70
2023/08/05 12:01:47;;;;;;;6.40;4.82;;;;;;;34.46;58.91;98870.22;6271122;28;20411;-69
2023/08/05 12:04:52;;;;;;;6.32;4.75;;;;;;;34.18;59.26;98868.19;6271893;28;20052;-70
2023/08/05 12:07:54;;;;;;;8.00;4.40;;;;;;;33.57;61.64;98872.66;6271843;28;20045;-69
2023/08/05 12:10:58;;;;;;;9.10;4.90;;;;;;;33.19;61.86;98860.53;6271974;28;20563;-70
2023/08/05 12:14:03;;;;;;;6.85;5.07;;;;;;;32.92;64.92;98862.38;6271818;28;20048;-70
2023/08/05 12:17:05;;;;;;;9.50;5.45;;;;;;;32.76;64.15;98857.25;6271603;28;20041;-70
2023/08/05 12:20:09;;;;;;;9.52;5.68;;;;;;;32.82;67.41;98848.88;6270839;28;20096;-73
2023/08/05 12:23:10;;;;;;;6.63;4.68;;;;;;;32.50;66.58;98847.19;6272016;28;20486;-73
2023/08/05 12:26:15;;;;;;;10.25;5.50;;;;;;;32.85;65.98;98848.34;6271810;28;20045;-73
2023/08/05 12:29:16;;;;;;;10.27;5.05;;;;;;;33.28;66.62;98848.91;6272084;28;20061;-70
2023/08/05 12:32:16;;;;;;;5.55;4.32;;;;;;;33.25;66.94;98835.94;6271958;28;20056;-73
2023/08/05 12:35:17;;;;;;;7.75;4.95;;;;;;;32.87;66.14;98835.41;6275391;28;20071;-73
2023/08/05 12:38:18;;;;;;;9.10;6.03;;;;;;;32.77;68.07;98834.59;6275094;28;20049;-73
2023/08/05 12:41:21;;;;;;;5.78;4.50;;;;;;;32.60;64.34;98827.53;6276501;28;20479;-73
2023/08/05 12:44:22;;;;;;;6.90;5.05;;;;;;;32.88;67.21;98826.19;6275149;28;20080;-73
2023/08/05 12:47:23;;;;;;;8.02;4.40;;;;;;;33.15;62.73;98827.03;6276548;28;20378;-73
2023/08/05 12:50:24;;;;;;;7.13;5.20;;;;;;;33.19;63.33;98826.22;6276530;28;20055;-73
2023/08/05 12:53:25;;;;;;;12.07;8.38;;;;;;;32.84;61.57;98814.31;6276089;28;20056;-73
2023/08/05 12:56:26;;;;;;;8.90;7.18;;;;;;;32.90;64.09;98810.53;6274579;28;20152;-73
2023/08/05 12:59:27;;;;;;;13.27;10.05;;;;;;;32.83;63.81;98814.59;6276514;28;20049;-73
2023/08/05 13:02:27;;;;;;;6.70;5.03;;;;;;;32.59;66.62;98806.22;6275883;28;20057;-73
2023/08/05 13:05:28;;;;;;;11.98;6.00;;;;;;;32.51;68.17;98802.94;6274858;28;20425;-73
2023/08/05 13:08:31;;;;;;;14.15;7.75;;;;;;;32.43;68.01;98806.16;6275938;28;20041;-73
2023/08/05 13:11:35;;;;;;;7.60;5.32;;;;;;;32.13;70.31;98796.91;6274643;28;20078;-73
2023/08/05 13:14:36;;;;;;;8.77;5.20;;;;;;;32.10;67.59;98799.31;6276051;28;20056;-73
2023/08/05 13:17:37;;;;;;;6.63;5.20;;;;;;;32.15;70.55;98790.47;6275324;28;20094;-73
2023/08/05 13:20:37;;;;;;;7.57;5.03;;;;;;;32.79;68.02;98783.81;6274421;28;20049;-73
2023/08/05 13:23:38;;;;;;;8.85;5.10;;;;;;;33.21;66.08;98780.81;6274133;28;20056;-73
2023/08/05 13:26:39;;;;;;;6.82;4.90;;;;;;;33.57;65.03;98775.31;6274287;28;20480;-73
2023/08/05 13:29:42;;;;;;;12.38;7.57;;;;;;;33.69;64.57;98767.75;6273820;28;20059;-73
2023/08/05 13:32:42;;;;;;;6.95;4.78;;;;;;;33.56;63.31;98767.47;6275510;28;20374;-73
2023/08/05 13:35:43;;;;;;;11.68;5.25;;;;;;;33.50;63.82;98763.97;6265986;28;20145;-73
2023/08/05 13:38:46;;;;;;;7.50;4.78;;;;;;;33.60;63.77;98760.44;6255753;28;20115;-73
2023/08/05 13:41:47;;;;;;;6.20;5.15;;;;;;;33.95;63.76;98753.28;6262417;28;20132;-73
2023/08/05 13:44:47;;;;;;;7.28;5.03;;;;;;;33.69;63.01;98751.50;6286205;28;20098;-73
2023/08/05 13:47:51;;;;;;;8.73;6.57;;;;;;;33.12;66.78;98748.13;6266830;28;20060;-72
2023/08/05 13:51:03;;;;;;;6.65;4.70;;;;;;;32.67;65.19;98746.28;6250597;28;20050;-73
2023/08/05 13:54:03;;;;;;;6.85;5.78;;;;;;;32.66;66.39;98744.66;6262496;28;20053;-73
2023/08/05 13:57:04;;;;;;;6.28;5.57;;;;;;;32.86;67.90;98741.13;6292884;28;20408;-73
2023/08/05 14:00:06;;;;;;;8.65;5.50;;;;;;;33.44;68.36;98740.75;6296593;28;20048;-73
2023/08/05 14:03:07;;;;;;;5.95;4.70;;;;;;;33.23;63.85;98748.91;6271915;28;20080;-73
2023/08/05 14:06:08;;;;;;;8.05;4.47;;;;;;;32.92;65.13;98740.03;6267672;28;20050;-73
2023/08/05 14:09:11;;;;;;;6.53;4.47;;;;;;;33.03;64.44;98740.81;6259836;28;20141;-73
2023/08/05 14:12:12;;;;;;;5.53;4.45;;;;;;;32.77;64.26;98740.88;6269588;28;20052;-73
2023/08/05 14:15:13;;;;;;;6.57;5.03;;;;;;;32.76;65.15;98731.16;6273715;28;20060;-73
2023/08/05 14:18:13;;;;;;;5.05;4.50;;;;;;;32.88;69.70;98723.56;6273656;28;20095;-73
2023/08/05 14:21:14;;;;;;;10.50;4.70;;;;;;;32.84;63.89;98733.28;6292043;28;20080;-73
2023/08/05 14:24:15;;;;;;;7.45;4.60;;;;;;;32.98;66.27;98730.03;6288300;28;20496;-73
2023/08/05 14:27:16;;;;;;;5.20;4.53;;;;;;;33.15;64.10;98738.66;6258570;28;20155;-73
2023/08/05 14:30:17;;;;;;;5.05;4.30;;;;;;;33.06;60.92;98722.19;6249034;28;20049;-72
2023/08/05 14:33:17;;;;;;;4.80;4.10;;;;;;;32.72;60.85;98711.19;6251796;28;20060;-73
2023/08/05 14:36:19;;;;;;;6.53;4.50;;;;;;;33.04;62.91;98721.66;6274042;28;20132;-70
2023/08/05 14:39:20;;;;;;;6.20;4.20;;;;;;;33.35;61.98;98713.47;6274008;28;20178;-70
2023/08/05 14:42:20;;;;;;;6.38;4.78;;;;;;;33.44;63.75;98692.09;6264499;28;20049;-70
2023/08/05 15:05:21;;;;;;;8.98;7.20;;;;;;;26.80;100.00;98780.47;6337767;27;20393;-74
2023/08/05 15:08:22;;;;;;;12.20;7.43;;;;;;;26.89;100.00;98749.66;6327794;28;20359;-75
2023/08/05 15:11:23;;;;;;;8.82;6.65;;;;;;;27.10;100.00;98725.00;6330247;28;20576;-75
2023/08/05 15:14:24;;;;;;;8.13;6.35;;;;;;;27.30;100.00;98732.72;6335751;28;20044;-74
2023/08/05 15:33:01;;;;;;;9.73;6.55;;;;;;;27.16;100.00;98717.91;6343546;27;20373;-71
2023/08/05 15:36:12;;;;;;;9.70;7.03;;;;;;;27.19;100.00;98709.41;6369163;27;20107;-73
2023/08/05 15:39:13;;;;;;;9.77;6.95;;;;;;;27.19;100.00;98701.38;6368919;27;20087;-71
2023/08/05 15:42:14;;;;;;;8.38;6.32;;;;;;;27.18;100.00;98694.41;6369028;27;20413;-73
2023/08/05 15:45:14;;;;;;;13.77;6.38;;;;;;;26.65;100.00;98684.63;6351392;28;20062;-76
2023/08/05 15:48:15;;;;;;;8.05;6.15;;;;;;;26.70;100.00;98676.72;6342233;28;20056;-70
2023/08/05 15:51:16;;;;;;;9.00;6.57;;;;;;;26.72;100.00;98656.69;6336962;28;20044;-71
2023/08/05 15:54:17;;;;;;;10.82;6.60;;;;;;;26.48;100.00;98645.16;6336806;28;20043;-71
2023/08/05 15:57:20;;;;;;;9.90;6.60;;;;;;;26.25;100.00;98637.94;6367290;28;20047;-71
2023/08/05 16:00:21;;;;;;;10.10;6.90;;;;;;;26.19;100.00;98628.16;6353967;27;20055;-76
2023/08/05 16:03:21;;;;;;;11.60;7.50;;;;;;;26.28;100.00;98616.06;6367761;28;20074;-74
2023/08/05 16:06:22;;;;;;;8.23;6.90;;;;;;;26.33;100.00;98602.81;6351172;28;20056;-74
2023/08/05 16:09:23;;;;;;;9.45;7.35;;;;;;;26.35;100.00;98599.91;6339831;28;20130;-71
2023/08/05 16:12:24;;;;;;;12.95;7.63;;;;;;;26.39;100.00;98587.72;6327588;28;20044;-72
2023/08/05 16:15:25;;;;;;;10.15;7.80;;;;;;;26.46;100.00;98576.88;6315934;28;20055;-74
2023/08/05 16:18:26;;;;;;;10.48;8.50;;;;;;;26.65;100.00;98577.63;6317323;28;20507;-70
2023/08/05 16:21:29;;;;;;;15.18;8.60;;;;;;;26.74;100.00;98584.25;6315845;28;20423;-74
2023/08/05 16:24:30;;;;;;;10.18;7.97;;;;;;;26.84;100.00;98580.97;6315605;28;20638;-71
2023/08/05 16:27:31;;;;;;;10.98;8.50;;;;;;;26.70;100.00;98578.53;6316579;28;20052;-71
2023/08/05 16:30:32;;;;;;;11.20;8.45;;;;;;;26.68;100.00;98579.81;6320110;28;20090;-72
2023/08/05 16:33:33;;;;;;;;;;;;;;;26.64;100.00;98574.13;6327675;28;20138;-72
2023/08/05 16:36:34;;;;;;;10.55;7.65;;;;;;;26.53;100.00;98575.72;6307018;28;19920;-71
2023/08/05 16:39:35;;;;;;;10.45;7.68;;;;;;;26.54;100.00;98558.66;6325125;28;20048;-74
2023/08/05 16:42:36;;;;;;;11.05;7.80;;;;;;;26.63;100.00;98563.69;6325083;28;20059;-74
2023/08/05 16:45:36;;;;;;;10.07;8.00;;;;;;;26.61;100.00;98569.25;6306693;28;20407;-74
2023/08/05 16:48:37;;;;;;;10.07;7.85;;;;;;;26.39;100.00;98552.94;6306809;28;20058;-74
2023/08/05 16:51:38;;;;;;;12.57;8.38;;;;;;;26.24;100.00;98550.75;6306468;28;20059;-74
2023/08/05 16:54:42;;;;;;;14.13;9.02;;;;;;;26.18;100.00;98553.53;6307019;28;20457;-70
2023/08/05 16:57:43;;;;;;;10.25;7.80;;;;;;;26.05;100.00;98546.56;6306495;28;20052;-70
2023/08/05 17:00:46;;;;;;;13.43;9.00;;;;;;;25.87;100.00;98548.22;6324243;28;20067;-70
2023/08/05 17:03:47;;;;;;;11.02;8.20;;;;;;;25.84;100.00;98551.38;6324350;28;20407;-70
2023/08/05 17:06:48;;;;;;;12.15;8.38;;;;;;;25.87;100.00;98568.78;6306118;28;20074;-70
2023/08/05 17:09:50;;;;;;;10.30;8.15;;;;;;;25.91;100.00;98578.00;6306007;28;20091;-70
2023/08/05 17:12:53;;;;;;;10.07;7.90;;;;;;;25.80;100.00;98605.47;6307176;27;20106;-73
2023/08/05 17:16:01;;;;;;;12.57;7.68;;;;;;;25.91;100.00;98661.66;6355711;27;20047;-73
2023/08/05 17:19:04;;;;;;;9.95;7.13;;;;;;;25.56;100.00;98679.34;6337177;27;20048;-73
2023/08/05 17:22:05;;;;;;;7.65;5.55;;;;;;;24.76;100.00;98672.16;6335304;28;20068;-75
2023/08/05 17:25:06;;;;;;;6.77;4.67;;;;;;;24.45;100.00;98679.16;6307619;28;20060;-75
2023/08/05 17:28:07;;;;;;;6.20;4.47;;;;;;;24.25;100.00;98650.78;6330931;27;20514;-72
2023/08/05 17:31:08;;;;;;;5.65;4.60;;;;;;;24.21;100.00;98662.91;6318586;28;20056;-71
2023/08/05 17:34:10;;;;;;;5.17;4.00;;;;;;;23.88;100.00;98673.78;6317643;28;20048;-72
2023/08/05 17:37:11;;;;;;;4.68;3.35;;;;;;;23.78;100.00;98655.59;6342005;28;20713;-71
2023/08/05 17:40:12;;;;;;;5.38;3.03;;;;;;;23.60;100.00;98658.94;6320234;27;20050;-75
2023/08/05 17:43:13;;;;;;;3.60;2.25;;;;;;;23.44;100.00;98659.44;6334491;28;20494;-72
2023/08/05 17:46:14;;;;;;;3.60;2.57;;;;;;;23.57;100.00;98662.00;6327091;28;20054;-75
2023/08/05 17:49:15;;;;;;;4.10;2.50;;;;;;;23.62;100.00;98667.53;6305281;28;20082;-69
2023/08/05 17:52:16;;;;;;;4.23;2.50;;;;;;;23.46;100.00;98658.19;6325107;28;20101;-75
2023/08/05 17:55:17;;;;;;;2.97;2.33;;;;;;;23.45;100.00;98645.06;6348875;28;20081;-75
2023/08/05 17:58:18;;;;;;;2.80;2.38;;;;;;;23.22;100.00;98638.41;6327662;28;20102;-75
2023/08/05 18:01:19;;;;;;;4.20;2.37;;;;;;;23.31;100.00;98645.13;6337118;27;20052;-75
2023/08/05 18:04:22;;;;;;;2.88;2.20;;;;;;;23.39;100.00;98648.56;6345330;28;20414;-72
2023/08/05 18:07:23;;;;;;;3.58;2.40;;;;;;;23.46;100.00;98670.69;6305649;28;20488;-72
2023/08/05 18:10:23;;;;;;;5.23;2.47;;;;;;;23.43;100.00;98681.72;6340160;27;20075;-72
2023/08/05 18:13:26;;;;;;;2.93;2.20;;;;;;;23.36;100.00;98686.28;6316581;28;20145;-73
2023/08/05 18:16:27;;;;;;;2.20;2.00;;;;;;;23.25;100.00;98680.56;6324796;28;20051;-72
2023/08/05 18:19:28;;;;;;;2.73;2.20;;;;;;;23.21;100.00;98663.38;6332493;28;20452;-72
2023/08/05 18:22:28;;;;;;;2.63;1.90;;;;;;;23.27;100.00;98673.19;6346620;27;20069;-74
2023/08/05 18:25:29;;;;;;;2.13;1.80;;;;;;;23.23;100.00;98677.31;6333605;27;20059;-74
2023/08/05 18:28:30;;;;;;;1.87;1.70;;;;;;;23.23;100.00;98676.50;6336046;28;20044;-74
2023/08/05 18:31:31;;;;;;;3.60;2.20;;;;;;;23.11;100.00;98663.81;6336601;27;20047;-74
2023/08/05 18:34:32;;;;;;;3.03;1.92;;;;;;;22.94;100.00;98655.44;6355590;27;20055;-74
2023/08/05 18:37:33;;;;;;;4.35;1.85;;;;;;;22.91;100.00;98660.34;6339019;27;20050;-74
2023/08/05 18:40:39;;;;;;;4.97;1.83;;;;;;;22.86;100.00;98663.63;6373711;27;20089;-74
2023/08/05 18:43:40;;;;;;;4.03;1.90;;;;;;;22.90;100.00;98658.72;6373705;27;20059;-72
2023/08/05 18:46:41;;;;;;;3.43;2.20;;;;;;;22.85;100.00;98661.19;6354839;27;20061;-72
2023/08/05 18:49:42;;;;;;;2.37;2.17;;;;;;;22.74;100.00;98650.13;6342484;27;20062;-70
2023/08/05 18:52:43;;;;;;;4.43;2.67;;;;;;;22.40;100.00;98643.19;6338543;28;20487;-70
2023/08/05 18:55:45;;;;;;;2.93;2.47;;;;;;;22.27;100.00;98633.38;6347231;28;20406;-70
2023/08/05 18:58:46;;;;;;;6.18;2.55;;;;;;;22.26;100.00;98633.63;6363382;27;20058;-72
2023/08/05 19:01:47;;;;;;;3.70;2.73;;;;;;;22.41;100.00;98639.53;6370101;27;20039;-72
2023/08/05 19:04:48;;;;;;;3.87;2.60;;;;;;;22.38;100.00;98639.94;6327954;28;20043;-71
2023/08/05 19:07:48;;;;;;;9.40;3.00;;;;;;;22.51;100.00;98631.97;6341370;27;20054;-72
2023/08/05 19:10:49;;;;;;;5.07;3.33;;;;;;;22.59;100.00;98640.75;6371907;27;20111;-72
2023/08/05 19:13:50;;;;;;;3.90;2.80;;;;;;;22.62;100.00;98649.13;6372542;27;20456;-72
2023/08/05 19:16:51;;;;;;;3.27;2.67;;;;;;;22.66;100.00;98654.84;6352584;27;20053;-72
2023/08/05 19:19:51;;;;;;;4.77;3.10;;;;;;;22.72;100.00;98659.34;6353222;28;20134;-72
2023/08/05 19:22:52;;;;;;;4.33;3.27;;;;;;;22.66;100.00;98647.69;6372612;28;20096;-72
2023/08/05 19:26:02;;;;;;;4.20;3.10;;;;;;;22.71;100.00;98657.69;6372295;28;20095;-72
2023/08/05 19:29:03;;;;;;;3.70;2.97;;;;;;;22.74;100.00;98647.47;6335059;28;20506;-70
2023/08/05 19:32:04;;;;;;;5.25;2.75;;;;;;;22.73;100.00;98645.03;6334944;28;20533;-69
2023/08/05 19:35:05;;;;;;;4.75;3.55;;;;;;;22.57;100.00;98648.94;6344944;28;20043;-69
2023/08/05 19:38:06;;;;;;;;;;;;;;;22.52;100.00;98644.22;6322246;28;20055;-69
2023/08/05 19:41:07;;;;;;;4.35;2.85;;;;;;;22.51;100.00;98634.63;6311802;28;19924;-69
2023/08/05 19:44:08;;;;;;;6.35;3.17;;;;;;;22.58;100.00;98631.16;6318519;28;20090;-69
2023/08/05 19:47:11;;;;;;;4.60;3.20;;;;;;;22.54;100.00;98634.19;6327732;28;20461;-69
2023/08/05 19:50:12;;;;;;;4.40;2.90;;;;;;;22.68;100.00;98640.34;6325923;28;20322;-70
2023/08/05 19:53:12;;;;;;;5.20;3.03;;;;;;;22.59;100.00;98636.25;6310647;28;20131;-70
2023/08/05 19:56:16;;;;;;;8.53;3.07;;;;;;;22.54;100.00;98634.19;6314741;22;20089;-86
2023/08/05 19:59:16;;;;;;;6.80;3.38;;;;;;;22.57;100.00;98640.97;6220892;28;20132;-85
2023/08/05 20:02:17;;;;;;;6.87;3.70;;;;;;;22.59;100.00;98638.09;6220857;28;20049;-83
2023/08/05 20:05:18;;;;;;;8.85;3.40;;;;;;;22.64;100.00;98659.56;6220459;28;20046;-84
2023/08/05 20:08:20;;;;;;;6.37;3.60;;;;;;;22.69;100.00;98667.72;6222893;28;20049;-84
2023/08/05 20:11:21;;;;;;;4.18;3.50;;;;;;;22.66;100.00;98660.19;6224242;28;20053;-84
2023/08/05 20:14:21;;;;;;;4.13;3.40;;;;;;;22.63;100.00;98688.00;6225208;28;20564;-83
2023/08/05 20:17:22;;;;;;;4.97;2.90;;;;;;;22.60;100.00;98680.41;6225959;28;20050;-84
2023/08/05 20:20:23;;;;;;;4.97;3.70;;;;;;;22.58;100.00;98692.28;6225130;28;20057;-85
2023/08/05 20:23:26;;;;;;;5.03;3.67;;;;;;;22.50;100.00;98674.69;6224729;28;20046;-84
2023/08/05 20:26:27;;;;;;;4.95;3.75;;;;;;;22.54;100.00;98694.53;6224861;28;20100;-84
2023/08/05 20:29:28;;;;;;;11.50;3.78;;;;;;;22.51;100.00;98711.69;6225734;28;20050;-84
2023/08/05 20:32:29;;;;;;;4.77;3.80;;;;;;;22.46;100.00;98700.84;6225658;28;20046;-84
2023/08/05 20:35:36;;;;;;;8.20;4.50;;;;;;;22.35;100.00;98720.06;6224210;28;20045;-84
2023/08/05 20:38:39;;;;;;;7.15;4.88;;;;;;;22.07;100.00;98707.72;6223396;28;20083;-82
2023/08/05 20:41:39;;;;;;;6.28;4.78;;;;;;;22.19;100.00;98734.50;6223898;28;20069;-84
2023/08/05 20:44:40;;;;;;;8.17;5.10;;;;;;;22.19;100.00;98728.38;6225785;28;20049;-84
2023/08/05 20:47:42;;;;;;;8.93;5.13;;;;;;;22.26;100.00;98738.03;6223924;28;20417;-84
2023/08/05 20:50:43;;;;;;;7.93;5.43;;;;;;;22.40;100.00;98728.22;6223756;28;20045;-84
2023/08/05 20:53:46;;;;;;;9.13;5.63;;;;;;;22.57;100.00;98725.19;6223607;28;20409;-84
2023/08/05 20:56:49;;;;;;;9.77;4.97;;;;;;;22.50;100.00;98701.25;6236465;28;20411;-84
2023/08/05 20:59:52;;;;;;;8.85;5.65;;;;;;;22.44;100.00;98694.91;6232188;28;20049;-84
2023/08/05 21:02:56;;;;;;;9.70;5.82;;;;;;;22.35;100.00;98719.25;6232237;28;20050;-84
2023/08/05 21:06:03;;;;;;;7.75;5.68;;;;;;;22.27;100.00;98731.69;6247413;28;20052;-83
2023/08/05 21:09:06;;;;;;;9.00;5.93;;;;;;;22.20;100.00;98736.16;6230884;28;20485;-86
2023/08/05 21:12:09;;;;;;;6.90;5.68;;;;;;;22.14;100.00;98740.41;6250208;28;20050;-85
2023/08/05 21:15:12;;;;;;;8.25;5.72;;;;;;;22.06;100.00;98742.44;6250355;28;20056;-85
2023/08/05 21:18:13;;;;;;;7.20;5.00;;;;;;;22.10;100.00;98746.34;6232259;28;20081;-84
2023/08/05 21:21:14;;;;;;;11.13;6.17;;;;;;;22.07;100.00;98754.69;6231822;28;20055;-83
2023/08/05 21:24:15;;;;;;;10.05;5.55;;;;;;;22.00;100.00;98754.69;6207800;28;20060;-82
2023/08/05 21:27:16;;;;;;;9.40;5.77;;;;;;;21.94;100.00;98748.31;6207468;28;20046;-84
2023/08/05 21:30:16;;;;;;;14.27;6.37;;;;;;;21.96;100.00;98760.59;6207569;28;20045;-84
2023/08/05 21:33:19;;;;;;;8.90;5.37;;;;;;;22.05;100.00;98751.41;6221288;28;20049;-82
2023/08/05 21:36:20;;;;;;;9.27;5.65;;;;;;;22.07;100.00;98754.69;6231621;28;20057;-83
2023/08/05 21:39:23;;;;;;;11.03;6.17;;;;;;;22.04;100.00;98745.28;6231769;28;20085;-83
2023/08/05 21:42:26;;;;;;;7.25;5.53;;;;;;;22.02;100.00;98733.25;6231840;28;20549;-84
2023/08/05 21:45:29;;;;;;;20.50;6.32;;;;;;;22.02;100.00;98720.78;6249063;28;20390;-85
2023/08/05 21:48:33;;;;;;;9.63;6.32;;;;;;;22.14;100.00;98737.75;6231851;28;20062;-88
2023/08/05 21:51:34;;;;;;;9.82;6.75;;;;;;;22.14;100.00;98740.41;6231400;28;20489;-84
2023/08/05 21:54:35;;;;;;;7.60;5.97;;;;;;;22.19;100.00;98739.81;6231660;28;20049;-85
2023/08/05 21:57:36;;;;;;;10.00;6.70;;;;;;;22.12;100.00;98746.97;6231521;28;20184;-83
2023/08/05 22:00:37;;;;;;;8.70;6.70;;;;;;;22.09;100.00;98737.56;6231475;28;20045;-87
2023/08/05 22:03:37;;;;;;;9.93;6.55;;;;;;;22.17;100.00;98749.00;6230789;28;20041;-84
2023/08/05 22:06:38;;;;;;;10.40;6.97;;;;;;;22.22;100.00;98738.63;6231060;28;20060;-84
2023/08/05 22:09:41;;;;;;;11.17;6.83;;;;;;;22.22;100.00;98739.44;6231275;28;20136;-85
2023/08/05 22:12:44;;;;;;;12.77;7.50;;;;;;;22.10;100.00;98725.91;6230585;28;20056;-83
2023/08/05 22:15:51;;;;;;;11.75;7.78;;;;;;;22.17;100.00;98733.88;6248637;28;20140;-84
2023/08/05 22:18:52;;;;;;;11.80;8.10;;;;;;;22.20;100.00;98738.81;6230622;28;20054;-82
2023/08/05 22:21:53;;;;;;;10.93;7.00;;;;;;;22.33;100.00;98724.75;6248221;28;20076;-84
2023/08/05 22:24:54;;;;;;;9.93;6.73;;;;;;;22.29;100.00;98720.88;6230270;28;20163;-83
2023/08/05 22:27:54;;;;;;;11.50;7.40;;;;;;;22.40;100.00;98720.25;6247813;28;20053;-82
2023/08/05 22:30:56;;;;;;;10.87;7.33;;;;;;;22.41;100.00;98715.78;6229864;28;20049;-85
2023/08/05 22:33:59;;;;;;;11.30;6.53;;;;;;;22.35;100.00;98714.75;6229781;28;20493;-84
2023/08/05 22:37:01;;;;;;;9.57;7.22;;;;;;;22.21;100.00;98715.72;6247726;28;20049;-84
2023/08/05 22:40:04;;;;;;;7.97;6.03;;;;;;;22.25;100.00;98711.66;6230350;28;20049;-88
2023/08/05 22:43:05;;;;;;;13.00;6.68;;;;;;;22.19;100.00;98704.47;6230883;28;20501;-87
2023/08/05 22:46:06;;;;;;;12.70;6.67;;;;;;;22.05;100.00;98699.16;6230062;28;20106;-87